Monday, June 18, 2018, 8:45 PM EDT
Back to Local

KSLK, Adirondack Regional Airport

Location: Saranac Lake, NY, United States Lat: 44.4
Local Time: 8:45 PM EDT ( 0:45 GMT) Lon: -74.2
Time Zone: US/Eastern Elev: 1663 ft

Show me the last for .
Show Decoded

2018-06-18 19:51 METAR KSLK 182351Z AUTO 26009G19KT 220V300 10SM OVC018 22/20 A2971 RMK AO2
                 SLP051 60037 T02220200 10272 20217 58004 =
2018-06-18 18:51 METAR KSLK 182251Z AUTO 24012G23KT 10SM BKN020 OVC027 22/20 A2972 RMK AO2 PK WND
                 27026/2154 SLP054 T02220200 =
2018-06-18 18:01 METAR KSLK 182201Z AUTO 25009G26KT 210V290 10SM BKN029 BKN034 23/20 A2972 RMK
                 AO2 PK WND 27026/2154 T02330200 =
2018-06-18 17:51 METAR KSLK 182151Z AUTO 25014G23KT 10SM BKN030 BKN034 BKN075 24/20 A2973 RMK AO2
                 LTG DSNT N SLP056 T02390200 =
2018-06-18 16:51 METAR KSLK 182051Z AUTO 24014G21KT 10SM SCT100 24/22 A2973 RMK AO2 SLP056 60037
                 T02440217 56021 =
2018-06-18 15:51 METAR KSLK 181951Z AUTO 24010KT 8SM FEW022 SCT065 BKN080 23/23 A2976 RMK AO2 PK
                 WND 24031/1916 LTG DSNT E RAB10E46 TSB11E37 SLP066 P0037 T02330228 =
2018-06-18 15:42 METAR KSLK 181942Z AUTO 24009G17KT 10SM -RA SCT020 BKN065 23/22 A2976 RMK AO2 PK
                 WND 24031/1916 LTG DSNT E RAB10 TSB11E37 P0037 T02280222 =
2018-06-18 15:29 METAR KSLK 181929Z AUTO 24009G17KT 4SM -TSRA BR SCT021 BKN034 BKN050 22/21 A2977
                 RMK AO2 PK WND 24031/1916 LTG DSNT NE AND E RAB10 TSB11 P0037 T02170206 =
2018-06-18 15:27 METAR KSLK 181927Z AUTO 24009G17KT 200V270 1SM -TSRA BR SCT021 BKN034 BKN055
                 22/20 A2977 RMK AO2 PK WND 24031/1916 LTG DSNT NE AND E RAB10 TSB11 P0037
                 T02170200 =
2018-06-18 15:22 METAR KSLK 181922Z AUTO 24011G31KT 1/4SM +TSRA SCT019 BKN027 BKN035 22/19 A2977
                 RMK AO2 PK WND 24031/1916 LTG DSNT NE AND E RAB10 TSB11 P0037 T02220189 =
2018-06-18 15:15 METAR KSLK 181915Z AUTO 28016G27KT 250V330 3/4SM +TSRA BR FEW023 BKN033 BKN055
                 23/22 A2980 RMK AO2 PK WND 25027/1915 LTG DSNT NE AND E RAB10 TSB11 PRESRR P0018
                 T02330217 =
2018-06-18 15:12 METAR KSLK 181912Z AUTO 29013G22KT 2SM -TSRA FEW023 BKN033 BKN050 26/22 A2977
                 RMK AO2 LTG DSNT NE AND E RAB10 TSB11 PRESRR P0006 T02560217 =
2018-06-18 15:06 METAR KSLK 181906Z AUTO 26012G23KT 10SM VCTS BKN033 BKN110 27/21 A2976 RMK AO2
                 LTG DSNT NE T02670211 =
2018-06-18 14:51 METAR KSLK 181851Z AUTO 24011G19KT 10SM SCT033 BKN041 BKN120 27/22 A2975 RMK AO2
                 SLP062 T02720217 =
2018-06-18 13:51 METAR KSLK 181751Z AUTO 24012G25KT 10SM SCT034 BKN045 27/21 A2979 RMK AO2 SLP077
                 T02670211 10278 20222 56021 =
2018-06-18 12:51 METAR KSLK 181651Z AUTO 24013G25KT 10SM FEW032 FEW045 SCT060 28/21 A2982 RMK AO2
                 PK WND 23031/1623 SLP085 T02780211 =
2018-06-18 11:51 METAR KSLK 181551Z AUTO 24013G21KT 10SM FEW041 27/21 A2982 RMK AO2 LTG DSNT NE
                 SLP089 T02720211 =
2018-06-18 10:51 METAR KSLK 181451Z AUTO 23008KT 10SM CLR 26/21 A2986 RMK AO2 SLP100 T02560206
                 56018 =
2018-06-18 09:51 METAR KSLK 181351Z AUTO 22011KT 10SM FEW045 24/20 A2987 RMK AO2 SLP104 T02440200
                 =
2018-06-18 08:51 METAR KSLK 181251Z AUTO 23012KT 10SM FEW045 SCT060 SCT080 23/19 A2990 RMK AO2
                 SLP114 T02280189 =
2018-06-18 07:51 METAR KSLK 181151Z AUTO 23010KT 10SM FEW046 22/18 A2991 RMK AO2 LTG DSNT NW
                 SLP118 T02220183 10222 20183 55005 =
2018-06-18 06:51 METAR KSLK 181051Z AUTO 22007KT 10SM FEW048 FEW055 20/18 A2991 RMK AO2 SLP118
                 T02000178 =
2018-06-18 05:51 METAR KSLK 180951Z AUTO 24006KT 10SM CLR 19/17 A2992 RMK AO2 SLP121 T01890167 =
2018-06-18 04:51 METAR KSLK 180851Z AUTO 23006KT 10SM CLR 19/16 A2993 RMK AO2 SLP124 T01940161
                 56017 =
2018-06-18 03:51 METAR KSLK 180751Z AUTO 24006KT 10SM FEW055 19/16 A2995 RMK AO2 SLP130 T01940156
                 =
2018-06-18 02:51 METAR KSLK 180651Z AUTO 24007KT 10SM CLR 20/15 A2996 RMK AO2 SLP134 T02000150 =
2018-06-18 01:51 METAR KSLK 180551Z AUTO 23007KT 10SM CLR 20/15 A2998 RMK AO2 SLP142 T02000150
                 10239 20178 58009 =
2018-06-18 00:51 METAR KSLK 180451Z AUTO 24006KT 10SM CLR 20/16 A3000 RMK AO2 SLP148 T02000156
                 402780044 =
2018-06-17 23:51 METAR KSLK 180351Z AUTO 00000KT 10SM CLR 18/17 A3001 RMK AO2 SLP154 T01830167 =
2018-06-17 22:51 METAR KSLK 180251Z AUTO 00000KT 10SM CLR 19/17 A3001 RMK AO2 SLP153 T01940167
                 52001 =
2018-06-17 21:51 METAR KSLK 180151Z AUTO 20005KT 10SM CLR 21/16 A3001 RMK AO2 SLP152 T02060161 =
2018-06-17 20:51 METAR KSLK 180051Z AUTO 25003KT 10SM CLR 21/17 A3001 RMK AO2 SLP155 T02110167 =

Support USWX by starting your Amazon purchase here.